createdAt,value
2023-02-06T00:00:40.686Z,1
2023-02-06T00:01:44.285Z,1.1
2023-02-06T00:02:47.728Z,1.1
2023-02-06T00:03:51.482Z,1.1
2023-02-06T00:04:54.925Z,1.1
2023-02-06T00:05:59.248Z,1.1
2023-02-06T00:07:02.693Z,1.1
2023-02-06T00:08:05.485Z,1.1
2023-02-06T00:09:08.814Z,1.1
2023-02-06T00:10:12.256Z,1.1
2023-02-06T00:11:15.424Z,1.1
2023-02-06T00:12:19.258Z,1.1
2023-02-06T00:13:23.367Z,1.1
2023-02-06T00:14:27.027Z,1.1
2023-02-06T00:15:30.328Z,1.1
2023-02-06T00:16:33.471Z,1.1
2023-02-06T00:17:36.921Z,1.1
2023-02-06T00:18:40.982Z,1.1
2023-02-06T00:19:44.683Z,1
2023-02-06T00:21:03.101Z,1.1
2023-02-06T00:22:06.978Z,1
2023-02-06T00:23:10.702Z,1
2023-02-06T00:24:13.761Z,1
2023-02-06T00:25:17.434Z,1
2023-02-06T00:26:20.948Z,1
2023-02-06T00:27:23.753Z,1
2023-02-06T00:28:27.042Z,1
2023-02-06T00:29:30.056Z,0.9
2023-02-06T00:30:32.979Z,0.9
2023-02-06T00:31:36.451Z,0.9
2023-02-06T00:32:39.518Z,0.9
2023-02-06T00:33:42.598Z,0.9
2023-02-06T00:34:46.043Z,0.9
2023-02-06T00:35:49.028Z,0.9
2023-02-06T00:36:52.012Z,0.9
2023-02-06T00:37:54.733Z,0.9
2023-02-06T00:38:58.190Z,0.9
2023-02-06T00:40:01.214Z,0.9
2023-02-06T00:41:04.756Z,0.9
2023-02-06T00:42:08.112Z,0.9
2023-02-06T00:43:10.889Z,0.9
2023-02-06T00:44:14.921Z,0.9
2023-02-06T00:45:18.009Z,0.9
2023-02-06T00:46:20.388Z,0.8
2023-02-06T00:47:23.806Z,0.9
2023-02-06T00:48:27.302Z,0.9
2023-02-06T00:49:30.560Z,0.9
2023-02-06T00:50:33.927Z,0.9
2023-02-06T00:51:37.564Z,0.9
2023-02-06T00:52:40.740Z,0.9
2023-02-06T00:53:43.612Z,0.9
2023-02-06T00:54:46.985Z,0.9
2023-02-06T00:55:50.110Z,0.9
2023-02-06T00:56:53.761Z,0.9
2023-02-06T00:57:56.926Z,0.9
2023-02-06T00:59:00.292Z,0.9
2023-02-06T01:00:04.560Z,0.9
2023-02-06T01:01:08.020Z,0.9
2023-02-06T01:02:11.660Z,0.9
2023-02-06T01:03:14.369Z,0.9
2023-02-06T01:04:17.234Z,0.9
2023-02-06T01:05:19.749Z,0.9
2023-02-06T01:06:23.670Z,0.9
2023-02-06T01:07:27.118Z,0.9
2023-02-06T01:08:30.333Z,0.9
2023-02-06T01:09:34.337Z,0.9
2023-02-06T01:10:38.058Z,0.8
2023-02-06T01:11:41.340Z,0.8
2023-02-06T01:12:44.457Z,0.8
2023-02-06T01:13:47.597Z,0.8
2023-02-06T01:14:50.686Z,0.8
2023-02-06T01:15:54.662Z,0.7
2023-02-06T01:16:58.456Z,0.7
2023-02-06T01:18:01.635Z,0.7
2023-02-06T01:19:04.938Z,0.6
2023-02-06T01:20:08.623Z,0.6
2023-02-06T01:21:11.996Z,0.6
2023-02-06T01:22:15.642Z,0.6
2023-02-06T01:23:18.134Z,0.6
2023-02-06T01:24:21.739Z,0.6
2023-02-06T01:25:24.445Z,0.6
2023-02-06T01:26:27.192Z,0.6
2023-02-06T01:27:30.480Z,0.6
2023-02-06T01:28:32.668Z,0.6
2023-02-06T01:29:36.043Z,0.6
2023-02-06T01:30:39.441Z,0.6
2023-02-06T01:31:43.841Z,0.6
2023-02-06T01:32:47.566Z,0.6
2023-02-06T01:33:51.269Z,0.6
2023-02-06T01:34:54.662Z,0.6
2023-02-06T01:35:57.879Z,0.6
2023-02-06T01:37:00.857Z,0.6
2023-02-06T01:38:03.376Z,0.6
2023-02-06T01:39:06.977Z,0.7
2023-02-06T01:40:09.909Z,0.8
2023-02-06T01:41:13.637Z,0.8
2023-02-06T01:42:17.249Z,0.8
2023-02-06T01:43:20.081Z,0.8
2023-02-06T01:44:23.159Z,0.9
2023-02-06T01:45:25.967Z,0.9
2023-02-06T01:46:29.476Z,0.9
2023-02-06T01:47:33.320Z,1
2023-02-06T01:48:36.495Z,0.9
2023-02-06T01:49:40.125Z,0.9
2023-02-06T01:50:43.890Z,0.9
2023-02-06T01:51:46.934Z,0.9
2023-02-06T01:52:49.815Z,1
2023-02-06T01:53:52.596Z,1
2023-02-06T01:54:55.948Z,1
2023-02-06T01:55:59.676Z,1
2023-02-06T01:57:02.932Z,1
2023-02-06T01:58:06.096Z,1.1
2023-02-06T01:59:09.663Z,1.1
2023-02-06T02:00:12.145Z,1.1
2023-02-06T02:01:15.647Z,1.1
2023-02-06T02:02:19.812Z,1.1
2023-02-06T02:03:23.123Z,1.2
2023-02-06T02:04:26.841Z,1.2
2023-02-06T02:05:29.831Z,1.2
2023-02-06T02:06:33.553Z,1.2
2023-02-06T02:07:36.681Z,1.3
2023-02-06T02:08:39.699Z,1.3
2023-02-06T02:09:43.022Z,1.3
2023-02-06T02:10:46.446Z,1.3
2023-02-06T02:11:50.255Z,1.3
2023-02-06T02:12:53.192Z,1.4
2023-02-06T02:13:56.544Z,1.4
2023-02-06T02:14:59.847Z,1.4
2023-02-06T02:16:02.694Z,1.4
2023-02-06T02:17:05.842Z,1.4
2023-02-06T02:18:08.904Z,1.4
2023-02-06T02:19:12.328Z,1.5
2023-02-06T02:20:16.099Z,1.5
2023-02-06T02:21:19.198Z,1.5
2023-02-06T02:22:21.908Z,1.5
2023-02-06T02:23:24.345Z,1.5
2023-02-06T02:24:28.760Z,1.6
2023-02-06T02:25:32.015Z,1.6
2023-02-06T02:26:35.702Z,1.6
2023-02-06T02:27:38.805Z,1.6
2023-02-06T02:28:41.945Z,1.6
2023-02-06T02:29:45.009Z,1.6
2023-02-06T02:30:48.733Z,1.6
2023-02-06T02:31:52.518Z,1.6
2023-02-06T02:32:56.190Z,1.6
2023-02-06T02:33:59.316Z,1.6
2023-02-06T02:35:03.431Z,1.6
2023-02-06T02:36:06.707Z,1.7
2023-02-06T02:37:10.506Z,1.7
2023-02-06T02:38:13.591Z,1.7
2023-02-06T02:39:16.957Z,1.7
2023-02-06T02:40:20.041Z,1.7
2023-02-06T02:41:22.749Z,1.8
2023-02-06T02:42:25.813Z,1.8
2023-02-06T02:43:28.889Z,1.8
2023-02-06T02:44:32.530Z,1.8
2023-02-06T02:45:38.181Z,1.8
2023-02-06T02:46:42.285Z,1.8
2023-02-06T02:47:45.437Z,1.8
2023-02-06T02:48:48.826Z,1.9
2023-02-06T02:49:52.740Z,1.9
2023-02-06T02:50:56.209Z,1.8
2023-02-06T02:51:59.507Z,1.8
2023-02-06T02:53:02.688Z,1.8
2023-02-06T02:54:05.987Z,1.8
2023-02-06T02:55:09.116Z,1.8
2023-02-06T02:56:11.818Z,1.8
2023-02-06T02:57:15.456Z,1.8
2023-02-06T02:58:19.080Z,1.8
2023-02-06T02:59:21.860Z,1.8
2023-02-06T03:00:24.996Z,1.8
2023-02-06T03:01:29.056Z,1.8
2023-02-06T03:02:33.376Z,1.8
2023-02-06T03:03:36.117Z,1.8
2023-02-06T03:04:39.774Z,1.9
2023-02-06T03:05:43.020Z,1.9
2023-02-06T03:06:47.020Z,1.8
2023-02-06T03:07:50.037Z,1.9
2023-02-06T03:08:53.095Z,1.9
2023-02-06T03:09:57.095Z,1.9
2023-02-06T03:11:00.198Z,1.9
2023-02-06T03:12:03.981Z,1.9
2023-02-06T03:13:07.349Z,1.9
2023-02-06T03:14:10.075Z,1.9
2023-02-06T03:15:13.254Z,1.9
2023-02-06T03:16:16.394Z,1.9
2023-02-06T03:17:19.188Z,1.9
2023-02-06T03:18:22.157Z,1.9
2023-02-06T03:19:25.333Z,1.9
2023-02-06T03:20:28.498Z,1.9
2023-02-06T03:21:32.376Z,1.9
2023-02-06T03:22:36.127Z,1.9
2023-02-06T03:23:39.344Z,1.9
2023-02-06T03:24:42.398Z,1.9
2023-02-06T03:25:46.401Z,1.9
2023-02-06T03:26:49.741Z,2
2023-02-06T03:27:53.330Z,2
2023-02-06T03:28:56.151Z,2
2023-02-06T03:29:59.505Z,2
2023-02-06T03:31:02.838Z,2
2023-02-06T03:32:05.708Z,2
2023-02-06T03:33:09.138Z,2
2023-02-06T03:34:12.765Z,2
2023-02-06T03:35:15.771Z,2
2023-02-06T03:36:18.880Z,2
2023-02-06T03:37:22.039Z,2
2023-02-06T03:38:25.768Z,1.9
2023-02-06T03:39:28.776Z,1.9
2023-02-06T03:40:31.903Z,1.9
2023-02-06T03:41:34.907Z,2
2023-02-06T03:42:38.631Z,2
2023-02-06T03:43:42.357Z,2
2023-02-06T03:44:45.708Z,2
2023-02-06T03:45:49.382Z,2
2023-02-06T03:46:52.945Z,2
2023-02-06T03:47:56.285Z,2
2023-02-06T03:48:59.307Z,2
2023-02-06T03:50:02.382Z,2
2023-02-06T03:51:06.197Z,2
2023-02-06T03:52:08.954Z,2
2023-02-06T03:53:12.172Z,2
2023-02-06T03:54:16.234Z,2.1
2023-02-06T03:55:19.580Z,2.1
2023-02-06T03:56:23.303Z,2.1
2023-02-06T03:57:26.635Z,2.1
2023-02-06T03:58:29.635Z,2.1
2023-02-06T03:59:32.692Z,2.1
2023-02-06T04:00:36.163Z,2.2
2023-02-06T04:01:39.545Z,2.1
2023-02-06T04:02:43.103Z,2.1
2023-02-06T04:03:46.256Z,2.2
2023-02-06T04:04:49.326Z,2.2
2023-02-06T04:05:53.001Z,2.1
2023-02-06T04:06:55.999Z,2.2
2023-02-06T04:07:58.749Z,2.1
2023-02-06T04:09:02.237Z,2.2
2023-02-06T04:10:06.250Z,2.1
2023-02-06T04:11:09.130Z,2.1
2023-02-06T04:12:12.221Z,2
2023-02-06T04:13:15.645Z,2
2023-02-06T04:14:18.161Z,2.1
2023-02-06T04:15:21.242Z,2.1
2023-02-06T04:16:24.598Z,2.1
2023-02-06T04:18:05.165Z,2
2023-02-06T04:19:09.457Z,1.9
2023-02-06T04:20:12.812Z,2
2023-02-06T04:21:16.520Z,1.9
2023-02-06T04:22:19.846Z,2
2023-02-06T04:23:22.903Z,2
2023-02-06T04:24:25.783Z,2
2023-02-06T04:25:29.793Z,2
2023-02-06T04:26:33.201Z,2
2023-02-06T04:27:35.972Z,2.1
2023-02-06T04:28:39.109Z,2.1
2023-02-06T04:29:42.095Z,2.1
2023-02-06T04:30:45.769Z,2.1
2023-02-06T04:31:48.576Z,2.1
2023-02-06T04:32:51.960Z,2.1
2023-02-06T04:33:55.451Z,2.2
2023-02-06T04:34:58.820Z,2.2
2023-02-06T04:36:01.977Z,2.2
2023-02-06T04:37:05.975Z,2.2
2023-02-06T04:38:09.024Z,2.2
2023-02-06T04:39:12.033Z,2.2
2023-02-06T04:40:15.388Z,2.2
2023-02-06T04:41:19.112Z,2.2
2023-02-06T04:42:22.616Z,2.2
2023-02-06T04:43:25.883Z,2.3
2023-02-06T04:44:28.687Z,2.3
2023-02-06T04:45:31.465Z,2.3
2023-02-06T04:46:33.901Z,2.3
2023-02-06T04:47:37.507Z,2.3
2023-02-06T04:48:41.206Z,2.3
2023-02-06T04:49:44.902Z,2.3
2023-02-06T04:50:48.232Z,2.3
2023-02-06T04:51:51.580Z,2.3
2023-02-06T04:52:54.924Z,2.3
2023-02-06T04:53:58.302Z,2.3
2023-02-06T04:55:02.018Z,2.3
2023-02-06T04:56:05.254Z,2.3
2023-02-06T04:57:08.401Z,2.3
2023-02-06T04:58:11.273Z,2.3
2023-02-06T04:59:13.697Z,2.3
2023-02-06T05:00:16.681Z,2.3
2023-02-06T05:01:20.477Z,2.4
2023-02-06T05:02:23.677Z,2.4
2023-02-06T05:03:26.485Z,2.4
2023-02-06T05:04:30.142Z,2.4
2023-02-06T05:05:35.003Z,2.4
2023-02-06T05:06:38.466Z,2.4
2023-02-06T05:07:41.912Z,2.4
2023-02-06T05:08:44.991Z,2.3
2023-02-06T05:09:48.651Z,2.3
2023-02-06T05:10:52.133Z,2.3
2023-02-06T05:11:55.310Z,2.3
2023-02-06T05:12:59.316Z,2.3
2023-02-06T05:14:02.876Z,2.3
2023-02-06T05:15:05.965Z,2.3
2023-02-06T05:16:09.751Z,2.3
2023-02-06T05:17:12.796Z,2.4
2023-02-06T05:18:15.860Z,2.3
2023-02-06T05:19:19.241Z,2.4
2023-02-06T05:20:22.936Z,2.4
2023-02-06T05:21:25.801Z,2.4
2023-02-06T05:22:28.583Z,2.4
2023-02-06T05:23:32.298Z,2.5
2023-02-06T05:24:35.343Z,2.5
2023-02-06T05:25:43.312Z,2.5
2023-02-06T05:26:46.703Z,2.5
2023-02-06T05:27:50.985Z,2.5
2023-02-06T05:28:54.618Z,2.5
2023-02-06T05:29:57.964Z,2.4
2023-02-06T05:31:01.523Z,2.4
2023-02-06T05:32:04.742Z,2.4
2023-02-06T05:33:07.810Z,2.4
2023-02-06T05:34:10.910Z,2.4
2023-02-06T05:35:14.628Z,2.4
2023-02-06T05:36:18.116Z,2.5
2023-02-06T05:37:21.477Z,2.5
2023-02-06T05:38:24.938Z,2.5
2023-02-06T05:39:27.633Z,2.5
2023-02-06T05:40:30.777Z,2.5
2023-02-06T05:41:34.413Z,2.5
2023-02-06T05:42:37.243Z,2.5
2023-02-06T05:43:40.744Z,2.5
2023-02-06T05:44:44.308Z,2.4
2023-02-06T05:45:47.181Z,2.4
2023-02-06T05:46:50.620Z,2.5
2023-02-06T05:47:54.084Z,2.5
2023-02-06T05:48:57.344Z,2.5
2023-02-06T05:50:01.159Z,2.6
2023-02-06T05:51:04.596Z,2.6
2023-02-06T05:52:07.848Z,2.7
2023-02-06T05:53:10.898Z,2.7
2023-02-06T05:54:14.569Z,2.7
2023-02-06T05:55:17.931Z,2.7
2023-02-06T05:56:20.987Z,2.7
2023-02-06T05:57:24.627Z,2.7
2023-02-06T05:58:27.618Z,2.7
2023-02-06T05:59:31.470Z,2.7
2023-02-06T06:00:35.275Z,2.6
2023-02-06T06:01:38.627Z,2.6
2023-02-06T06:02:41.337Z,2.6
2023-02-06T06:03:45.655Z,2.6
2023-02-06T06:04:49.805Z,2.6
2023-02-06T06:05:52.970Z,2.6
2023-02-06T06:06:56.090Z,2.6
2023-02-06T06:07:59.479Z,2.6
2023-02-06T06:09:01.924Z,2.6
2023-02-06T06:10:05.012Z,2.5
2023-02-06T06:11:08.383Z,2.5
2023-02-06T06:12:11.765Z,2.5
2023-02-06T06:13:14.578Z,2.5
2023-02-06T06:14:17.944Z,2.5
2023-02-06T06:15:21.194Z,2.5
2023-02-06T06:16:25.161Z,2.5
2023-02-06T06:17:28.330Z,2.5
2023-02-06T06:18:31.814Z,2.6
2023-02-06T06:19:35.555Z,2.6
2023-02-06T06:20:39.289Z,2.6
2023-02-06T06:21:42.573Z,2.6
2023-02-06T06:22:46.299Z,2.6
2023-02-06T06:23:49.150Z,2.6
2023-02-06T06:24:52.604Z,2.6
2023-02-06T06:25:56.027Z,2.6
2023-02-06T06:26:59.136Z,2.7
2023-02-06T06:28:02.589Z,2.7
2023-02-06T06:29:06.210Z,2.7
2023-02-06T06:30:09.036Z,2.7
2023-02-06T06:31:12.835Z,2.7
2023-02-06T06:32:16.264Z,2.6
2023-02-06T06:33:19.328Z,2.6
2023-02-06T06:34:22.412Z,2.5
2023-02-06T06:35:25.406Z,2.5
2023-02-06T06:36:28.775Z,2.6
2023-02-06T06:37:32.116Z,2.6
2023-02-06T06:38:34.829Z,2.6
2023-02-06T06:39:38.811Z,2.6
2023-02-06T06:40:42.210Z,2.6
2023-02-06T06:41:45.469Z,2.6
2023-02-06T06:42:48.575Z,2.6
2023-02-06T06:43:53.226Z,2.6
2023-02-06T06:44:56.770Z,2.6
2023-02-06T06:45:59.771Z,2.6
2023-02-06T06:47:03.157Z,2.6
2023-02-06T06:48:06.718Z,2.6
2023-02-06T06:49:09.900Z,2.6
2023-02-06T06:50:13.060Z,2.6
2023-02-06T06:51:16.469Z,2.6
2023-02-06T06:52:27.125Z,2.7
2023-02-06T06:53:30.199Z,2.7
2023-02-06T06:54:33.610Z,2.7
2023-02-06T06:55:39.064Z,2.7
2023-02-06T06:56:41.850Z,2.7
2023-02-06T06:57:44.945Z,2.8
2023-02-06T06:58:48.556Z,2.8
2023-02-06T06:59:51.916Z,2.8
2023-02-06T07:00:55.081Z,2.7
2023-02-06T07:01:58.760Z,2.7
2023-02-06T07:03:02.294Z,2.7
2023-02-06T07:04:06.541Z,2.7
2023-02-06T07:05:09.812Z,2.7
2023-02-06T07:06:13.444Z,2.7
2023-02-06T07:07:16.512Z,2.7
2023-02-06T07:08:20.061Z,2.7
2023-02-06T07:09:23.422Z,2.7
2023-02-06T07:10:26.127Z,2.7
2023-02-06T07:11:29.871Z,2.7
2023-02-06T07:12:32.583Z,2.7
2023-02-06T07:13:35.930Z,2.7
2023-02-06T07:14:39.294Z,2.7
2023-02-06T07:15:42.382Z,2.7
2023-02-06T07:16:45.770Z,2.8
2023-02-06T07:17:49.217Z,2.8
2023-02-06T07:18:52.458Z,2.8
2023-02-06T07:19:56.519Z,2.8
2023-02-06T07:20:59.921Z,2.8
2023-02-06T07:22:03.264Z,2.8
2023-02-06T07:23:06.699Z,2.8
2023-02-06T07:24:09.773Z,2.8
2023-02-06T07:25:12.841Z,2.8
2023-02-06T07:26:15.891Z,2.8
2023-02-06T07:27:18.880Z,2.8
2023-02-06T07:28:22.561Z,2.8
2023-02-06T07:29:26.320Z,2.8
2023-02-06T07:30:29.566Z,2.8
2023-02-06T07:31:33.050Z,2.8
2023-02-06T07:32:36.891Z,2.8
2023-02-06T07:33:40.070Z,2.8
2023-02-06T07:34:43.932Z,2.8
2023-02-06T07:35:47.108Z,2.9
2023-02-06T07:36:50.221Z,2.9
2023-02-06T07:37:53.649Z,2.9
2023-02-06T07:38:56.647Z,3
2023-02-06T07:39:59.998Z,3
2023-02-06T07:41:02.570Z,3
2023-02-06T07:42:06.045Z,2.9
2023-02-06T07:43:09.182Z,2.9
2023-02-06T07:44:12.813Z,2.9
2023-02-06T07:45:16.142Z,2.8
2023-02-06T07:46:20.127Z,2.8
2023-02-06T07:47:23.519Z,2.8
2023-02-06T07:48:27.263Z,2.8
2023-02-06T07:49:30.268Z,2.8
2023-02-06T07:50:33.818Z,2.8
2023-02-06T07:51:37.351Z,2.8
2023-02-06T07:52:40.800Z,2.8
2023-02-06T07:53:43.800Z,2.8
2023-02-06T07:54:46.573Z,2.8
2023-02-06T07:55:50.021Z,2.8
2023-02-06T07:56:53.160Z,2.8
2023-02-06T07:57:56.139Z,2.8
2023-02-06T07:58:59.300Z,2.8
2023-02-06T08:00:01.817Z,2.7
2023-02-06T08:01:05.884Z,2.7
2023-02-06T08:02:09.357Z,2.6
2023-02-06T08:03:11.862Z,2.7
2023-02-06T08:04:15.424Z,2.8
2023-02-06T08:05:18.887Z,2.8
2023-02-06T08:06:26.046Z,2.8
2023-02-06T08:07:29.874Z,2.8
2023-02-06T08:08:33.072Z,2.9
2023-02-06T08:09:36.110Z,2.9
2023-02-06T08:10:39.342Z,2.9
2023-02-06T08:11:43.343Z,3
2023-02-06T08:12:46.744Z,2.9
2023-02-06T08:13:50.144Z,2.9
2023-02-06T08:14:52.954Z,2.9
2023-02-06T08:15:55.458Z,2.9
2023-02-06T08:16:59.003Z,2.9
2023-02-06T08:18:01.457Z,3
2023-02-06T08:19:04.259Z,3
2023-02-06T08:20:07.744Z,3
2023-02-06T08:21:11.051Z,3
2023-02-06T08:22:14.008Z,3
2023-02-06T08:23:20.919Z,3
2023-02-06T08:24:24.009Z,2.9
2023-02-06T08:25:27.197Z,2.9
2023-02-06T08:26:30.904Z,2.9
2023-02-06T08:27:34.306Z,3
2023-02-06T08:28:37.758Z,3
2023-02-06T08:29:41.087Z,2.9
2023-02-06T08:30:44.279Z,3
2023-02-06T08:31:48.631Z,3
2023-02-06T08:32:51.765Z,3
2023-02-06T08:33:55.114Z,2.9
2023-02-06T08:34:58.535Z,2.8
2023-02-06T08:36:02.664Z,2.7
2023-02-06T08:37:05.970Z,2.7
2023-02-06T08:38:09.158Z,2.7
2023-02-06T08:39:13.298Z,2.7
2023-02-06T08:40:17.001Z,2.7
2023-02-06T08:41:19.999Z,2.7
2023-02-06T08:42:23.199Z,2.7
2023-02-06T08:43:26.560Z,2.7
2023-02-06T08:44:29.581Z,2.7
2023-02-06T08:45:32.742Z,2.8
2023-02-06T08:46:35.616Z,2.8
2023-02-06T08:47:39.623Z,2.7
2023-02-06T08:48:42.991Z,2.7
2023-02-06T08:49:46.328Z,2.7
2023-02-06T08:50:50.059Z,2.8
2023-02-06T08:51:53.839Z,2.7
2023-02-06T08:52:56.936Z,2.8
2023-02-06T08:54:00.394Z,2.7
2023-02-06T08:55:04.617Z,2.8
2023-02-06T08:56:07.990Z,2.8
2023-02-06T08:57:10.890Z,2.8
2023-02-06T08:58:14.217Z,2.9
2023-02-06T08:59:17.656Z,2.9
2023-02-06T09:00:21.330Z,2.9
2023-02-06T09:01:24.627Z,3
2023-02-06T09:02:28.509Z,3
2023-02-06T09:03:32.794Z,3.1
2023-02-06T09:04:36.293Z,3.1
2023-02-06T09:05:39.870Z,3.1
2023-02-06T09:06:43.225Z,3.1
2023-02-06T09:07:46.390Z,3.1
2023-02-06T09:08:50.107Z,3.1
2023-02-06T09:09:53.649Z,3.1
2023-02-06T09:10:57.746Z,3.1
2023-02-06T09:12:00.853Z,3.1
2023-02-06T09:13:04.284Z,3.1
2023-02-06T09:14:07.180Z,3.2
2023-02-06T09:15:10.408Z,3.2
2023-02-06T09:16:14.463Z,3.3
2023-02-06T09:17:18.231Z,3.3
2023-02-06T09:18:21.599Z,3.3
2023-02-06T09:19:24.970Z,3.4
2023-02-06T09:20:28.456Z,3.4
2023-02-06T09:21:31.822Z,3.5
2023-02-06T09:22:35.913Z,3.7
2023-02-06T09:23:40.020Z,3.8
2023-02-06T09:24:43.377Z,3.9
2023-02-06T09:25:47.391Z,3.9
2023-02-06T09:27:02.252Z,4
2023-02-06T09:28:06.009Z,4
2023-02-06T09:29:08.299Z,4
2023-02-06T09:30:11.640Z,4.1
2023-02-06T09:31:15.673Z,4.1
2023-02-06T09:32:19.299Z,4.2
2023-02-06T09:33:23.484Z,4.3
2023-02-06T09:34:27.378Z,4.3
2023-02-06T09:35:31.176Z,4.3
2023-02-06T09:36:34.960Z,4.3
2023-02-06T09:37:38.310Z,4.4
2023-02-06T09:38:42.337Z,4.5
2023-02-06T09:39:46.054Z,4.6
2023-02-06T09:40:49.236Z,4.7
2023-02-06T09:41:52.090Z,4.7
2023-02-06T09:42:56.629Z,4.6
2023-02-06T09:43:59.813Z,4.6
2023-02-06T09:45:02.531Z,4.6
2023-02-06T09:46:06.250Z,4.5
2023-02-06T09:47:09.950Z,4.6
2023-02-06T09:48:13.395Z,4.6
2023-02-06T09:49:17.062Z,4.6
2023-02-06T09:50:20.760Z,4.5
2023-02-06T09:51:24.496Z,4.5
2023-02-06T09:52:27.794Z,4.5
2023-02-06T09:53:32.464Z,4.5
2023-02-06T09:54:35.593Z,4.5
2023-02-06T09:55:40.174Z,4.5
2023-02-06T09:56:44.674Z,4.5
2023-02-06T09:57:48.087Z,4.6
2023-02-06T09:58:51.963Z,4.6
2023-02-06T09:59:54.748Z,4.6
2023-02-06T10:00:57.475Z,4.5
2023-02-06T10:02:00.825Z,4.5
2023-02-06T10:03:03.946Z,4.4
2023-02-06T10:04:07.641Z,4.4
2023-02-06T10:05:10.729Z,4.5
2023-02-06T10:06:14.409Z,4.4
2023-02-06T10:07:18.080Z,4.4
2023-02-06T10:08:21.717Z,4.6
2023-02-06T10:09:25.074Z,4.8
2023-02-06T10:10:28.696Z,4.9
2023-02-06T10:11:31.799Z,5.1
2023-02-06T10:12:35.898Z,5.4
2023-02-06T10:13:39.636Z,5.8
2023-02-06T10:14:43.376Z,6.2
2023-02-06T10:15:47.787Z,6.4
2023-02-06T10:16:51.877Z,6.7
2023-02-06T10:17:54.600Z,6.9
2023-02-06T10:18:57.756Z,7.1
2023-02-06T10:20:00.498Z,7
2023-02-06T10:21:03.300Z,7
2023-02-06T10:22:07.319Z,7
2023-02-06T10:23:10.764Z,6.8
2023-02-06T10:24:14.267Z,6.8
2023-02-06T10:25:17.638Z,6.8
2023-02-06T10:26:21.304Z,6.8
2023-02-06T10:27:24.533Z,6.7
2023-02-06T10:28:27.913Z,6.7
2023-02-06T10:29:31.077Z,6.8
2023-02-06T10:30:35.123Z,6.9
2023-02-06T10:31:39.058Z,7.1
2023-02-06T10:32:42.201Z,7.2
2023-02-06T10:33:45.904Z,7.3
2023-02-06T10:34:48.142Z,7.4
2023-02-06T10:35:51.698Z,7.5
2023-02-06T10:36:55.425Z,7.7
2023-02-06T10:37:58.696Z,7.9
2023-02-06T10:39:02.490Z,8.3
2023-02-06T10:40:05.842Z,8.5
2023-02-06T10:41:08.702Z,8.8
2023-02-06T10:42:12.057Z,8.9
2023-02-06T10:43:15.381Z,9.2
2023-02-06T10:44:19.010Z,9.4
2023-02-06T10:45:22.956Z,9.7
2023-02-06T10:46:27.371Z,9.8
2023-02-06T10:47:31.021Z,9.9
2023-02-06T10:48:34.529Z,9.9
2023-02-06T10:49:37.902Z,9.9
2023-02-06T10:50:40.959Z,9.9
2023-02-06T10:51:44.216Z,10
2023-02-06T10:52:47.370Z,9.9
2023-02-06T10:53:50.394Z,9.9
2023-02-06T10:54:53.852Z,9.8
2023-02-06T10:55:57.886Z,9.4
2023-02-06T10:57:01.633Z,9.3
2023-02-06T10:58:05.105Z,9.1
2023-02-06T10:59:08.448Z,8.9
2023-02-06T11:00:11.962Z,8.9
2023-02-06T11:01:28.649Z,8.9
2023-02-06T11:02:33.104Z,8.9
2023-02-06T11:03:37.546Z,8.7
2023-02-06T11:04:43.092Z,8.5
2023-02-06T11:05:46.650Z,8.4
2023-02-06T11:06:50.350Z,8.2
2023-02-06T11:07:53.472Z,8.1
2023-02-06T11:08:56.581Z,8.2
2023-02-06T11:09:59.701Z,8.5
2023-02-06T11:11:03.417Z,8.8
2023-02-06T11:12:06.847Z,9.1
2023-02-06T11:13:09.879Z,9.3
2023-02-06T11:14:13.193Z,9.6
2023-02-06T11:15:16.821Z,9.8
2023-02-06T11:16:20.414Z,9.9
2023-02-06T11:17:23.897Z,10.1
2023-02-06T11:18:27.331Z,10.3
2023-02-06T11:19:30.105Z,10.4
2023-02-06T11:20:34.236Z,10.4
2023-02-06T11:21:37.132Z,10.4
2023-02-06T11:22:55.361Z,10.5
2023-02-06T11:23:59.055Z,10.6
2023-02-06T11:25:02.804Z,10.6
2023-02-06T11:26:05.950Z,10.6
2023-02-06T11:27:09.351Z,10.7
2023-02-06T11:28:13.371Z,10.7
2023-02-06T11:29:16.786Z,10.5
2023-02-06T11:30:20.262Z,10.4
2023-02-06T11:31:23.609Z,10.3
2023-02-06T11:32:27.397Z,10.1
2023-02-06T11:33:31.373Z,9.9
2023-02-06T11:34:35.116Z,9.8
2023-02-06T11:35:40.602Z,9.7
2023-02-06T11:36:43.947Z,9.6
2023-02-06T11:37:47.364Z,9.5
2023-02-06T11:38:51.000Z,9.4
2023-02-06T11:39:54.329Z,9.3
2023-02-06T11:40:57.775Z,9.3
2023-02-06T11:42:00.806Z,9.2
2023-02-06T11:43:03.980Z,9.4
2023-02-06T11:44:08.186Z,9.3
2023-02-06T11:45:10.932Z,9.2
2023-02-06T11:46:15.396Z,9.1
2023-02-06T11:47:18.964Z,9.1
2023-02-06T11:48:22.639Z,8.9
2023-02-06T11:49:26.503Z,8.9
2023-02-06T11:50:30.401Z,8.9
2023-02-06T11:51:34.114Z,8.8
2023-02-06T11:52:37.734Z,8.7
2023-02-06T11:53:41.244Z,8.5
2023-02-06T11:54:44.299Z,8.3
2023-02-06T11:55:47.377Z,8.2
2023-02-06T11:56:50.512Z,8
2023-02-06T11:57:54.046Z,8
2023-02-06T11:58:57.160Z,8
2023-02-06T12:00:00.325Z,8
2023-02-06T12:01:03.736Z,8
2023-02-06T12:02:07.219Z,8
2023-02-06T12:03:10.566Z,8
2023-02-06T12:04:13.626Z,8
2023-02-06T12:05:17.687Z,8
2023-02-06T12:06:21.472Z,8.2
2023-02-06T12:07:25.186Z,8.2
2023-02-06T12:08:28.346Z,8.3
2023-02-06T12:09:31.535Z,8.1
2023-02-06T12:10:35.172Z,8.1
2023-02-06T12:11:38.417Z,8.1
2023-02-06T12:12:41.508Z,8
2023-02-06T12:13:44.912Z,8
2023-02-06T12:14:47.593Z,8.3
2023-02-06T12:15:54.745Z,8.5
2023-02-06T12:16:58.882Z,8.8
2023-02-06T12:18:02.346Z,8.9
2023-02-06T12:19:06.073Z,8.8
2023-02-06T12:20:09.884Z,9.1
2023-02-06T12:21:13.878Z,9.3
2023-02-06T12:22:17.282Z,9.4
2023-02-06T12:23:20.208Z,9.4
2023-02-06T12:24:23.634Z,9.3
2023-02-06T12:25:26.629Z,8.9
2023-02-06T12:26:28.839Z,8.6
2023-02-06T12:27:32.089Z,8.6
2023-02-06T12:28:35.470Z,8.5
2023-02-06T12:29:38.574Z,8.3
2023-02-06T12:30:41.988Z,8.1
2023-02-06T12:31:46.350Z,7.9
2023-02-06T12:32:50.614Z,7.9
2023-02-06T12:33:56.955Z,7.9
2023-02-06T12:35:00.671Z,7.9
2023-02-06T12:36:03.801Z,8
2023-02-06T12:37:07.596Z,8.1
2023-02-06T12:38:11.099Z,8.1
2023-02-06T12:39:18.062Z,8.1
2023-02-06T12:40:21.514Z,8.1
2023-02-06T12:41:24.640Z,8.1
2023-02-06T12:42:27.384Z,8.1
2023-02-06T12:43:30.778Z,8.1
2023-02-06T12:44:33.514Z,8.1
2023-02-06T12:45:38.620Z,8
2023-02-06T12:46:42.455Z,8
2023-02-06T12:47:46.511Z,8
2023-02-06T12:48:49.553Z,7.9
2023-02-06T12:49:53.228Z,7.9
2023-02-06T12:50:56.439Z,7.9
2023-02-06T12:51:59.442Z,7.9
2023-02-06T12:53:03.446Z,7.9
2023-02-06T12:54:06.539Z,7.9
2023-02-06T12:55:09.897Z,7.8
2023-02-06T12:56:13.981Z,7.6
2023-02-06T12:57:17.143Z,7.5
2023-02-06T12:58:19.914Z,7.5
2023-02-06T12:59:22.890Z,7.6
2023-02-06T13:00:26.263Z,7.7
2023-02-06T13:01:36.131Z,7.7
2023-02-06T13:02:40.087Z,7.7
2023-02-06T13:03:43.546Z,7.7
2023-02-06T13:04:46.638Z,7.6
2023-02-06T13:05:49.444Z,7.6
2023-02-06T13:06:52.902Z,7.7
2023-02-06T13:07:56.456Z,7.6
2023-02-06T13:09:00.586Z,7.6
2023-02-06T13:10:03.700Z,7.6
2023-02-06T13:11:06.722Z,7.5
2023-02-06T13:12:09.808Z,7.5
2023-02-06T13:13:13.263Z,7.4
2023-02-06T13:14:17.043Z,7.4
2023-02-06T13:15:20.698Z,7.4
2023-02-06T13:16:24.306Z,7.4
2023-02-06T13:17:27.608Z,7.4
2023-02-06T13:18:30.393Z,7.3
2023-02-06T13:19:33.625Z,7.3
2023-02-06T13:20:37.000Z,7.3
2023-02-06T13:21:40.691Z,7.3
2023-02-06T13:22:44.145Z,7.2
2023-02-06T13:23:47.508Z,7.1
2023-02-06T13:24:50.925Z,7.1
2023-02-06T13:25:54.784Z,7
2023-02-06T13:26:58.322Z,6.8
2023-02-06T13:28:01.554Z,6.8
2023-02-06T13:29:05.440Z,6.8
2023-02-06T13:30:08.483Z,6.8
2023-02-06T13:31:12.084Z,6.8
2023-02-06T13:32:14.663Z,6.9
2023-02-06T13:33:17.780Z,6.9
2023-02-06T13:34:21.758Z,6.8
2023-02-06T13:35:24.804Z,6.8
2023-02-06T13:36:28.542Z,6.7
2023-02-06T13:37:32.092Z,6.7
2023-02-06T13:38:35.039Z,6.7
2023-02-06T13:39:38.461Z,6.7
2023-02-06T13:40:42.402Z,6.7
2023-02-06T13:41:45.530Z,6.8
2023-02-06T13:42:48.524Z,6.8
2023-02-06T13:43:50.959Z,6.8
2023-02-06T13:44:54.437Z,6.8
2023-02-06T13:45:57.422Z,6.6
2023-02-06T13:47:00.908Z,6.5
2023-02-06T13:48:03.421Z,6.5
2023-02-06T13:49:06.500Z,6.5
2023-02-06T13:50:10.385Z,6.5
2023-02-06T13:51:14.127Z,6.5
2023-02-06T13:52:17.788Z,6.5
2023-02-06T13:53:21.560Z,6.5
2023-02-06T13:54:25.186Z,6.5
2023-02-06T13:55:28.565Z,6.6
2023-02-06T13:56:31.815Z,6.6
2023-02-06T13:57:35.479Z,6.7
2023-02-06T13:58:38.270Z,6.7
2023-02-06T13:59:41.998Z,6.7
2023-02-06T14:00:45.795Z,6.7
2023-02-06T14:01:49.819Z,6.8
2023-02-06T14:02:53.620Z,6.8
2023-02-06T14:03:56.820Z,6.7
2023-02-06T14:04:59.837Z,6.7
2023-02-06T14:06:03.576Z,6.7
2023-02-06T14:07:06.381Z,6.7
2023-02-06T14:08:09.475Z,6.6
2023-02-06T14:09:13.303Z,6.5
2023-02-06T14:10:16.506Z,6.5
2023-02-06T14:11:20.106Z,6.4
2023-02-06T14:12:24.174Z,6.4
2023-02-06T14:13:27.677Z,6.3
2023-02-06T14:14:31.055Z,6.2
2023-02-06T14:15:34.089Z,6.2
2023-02-06T14:16:37.622Z,6.2
2023-02-06T14:17:40.338Z,6.1
2023-02-06T14:18:43.373Z,6
2023-02-06T14:19:46.488Z,6
2023-02-06T14:20:50.568Z,6
2023-02-06T14:21:54.292Z,5.9
2023-02-06T14:22:57.104Z,5.9
2023-02-06T14:24:01.195Z,5.9
2023-02-06T14:25:04.041Z,5.9
2023-02-06T14:26:07.552Z,5.9
2023-02-06T14:27:10.595Z,6
2023-02-06T14:28:15.074Z,6
2023-02-06T14:29:18.781Z,5.9
2023-02-06T14:30:22.437Z,5.8
2023-02-06T14:31:26.059Z,5.8
2023-02-06T14:32:29.328Z,5.8
2023-02-06T14:33:32.664Z,5.7
2023-02-06T14:34:36.368Z,5.7
2023-02-06T14:35:41.389Z,5.7
2023-02-06T14:36:44.773Z,5.6
2023-02-06T14:37:48.110Z,5.7
2023-02-06T14:38:51.807Z,5.7
2023-02-06T14:39:54.910Z,5.6
2023-02-06T14:40:58.337Z,5.6